Flight Track Log - Related Links

Times and Time Zones

All times are in EST time to prevent confusion due to time zone crossing. See the AAL1653 flight status page for this flight to view local times or setup timezone preferences in your user account.

Time Position Orientation Groundspeed Altitude Reporting Facility
EST Latitude Longitude Course Direction KTS MPH feet Rate Location/Type
Mon 02:49:00 PM 10.8965 -61.5279 328° Northwest  Level FlightAware Approximate
Mon 02:50:00 PM 10.9969 -61.5915 328° Northwest  Level FlightAware Approximate
Mon 02:51:00 PM 11.0972 -61.6552 328° Northwest  Level FlightAware Approximate
Mon 02:52:00 PM 11.1975 -61.7189 328° Northwest  Level FlightAware Approximate
Mon 02:53:00 PM 11.2978 -61.7826 328° Northwest  Level FlightAware Approximate
Mon 02:54:00 PM 11.3981 -61.8465 328° Northwest  Level FlightAware Approximate
Mon 02:55:00 PM 11.4984 -61.9103 328° Northwest  Level FlightAware Approximate
Mon 02:56:00 PM 11.5987 -61.9742 328° Northwest  Level FlightAware Approximate
Mon 02:57:00 PM 11.6990 -62.0381 328° Northwest  Level FlightAware Approximate
Mon 02:58:00 PM 11.7992 -62.1021 328° Northwest  Level FlightAware Approximate
Mon 02:59:00 PM 11.8994 -62.1662 328° Northwest  Level FlightAware Approximate
Mon 03:00:00 PM 11.9996 -62.2302 328° Northwest  Level FlightAware Approximate
Mon 03:01:00 PM 12.0998 -62.2944 328° Northwest  Level FlightAware Approximate
Mon 03:02:00 PM 12.1781 -62.3850 329° Northwest  Level Estimated
Mon 03:03:00 PM 12.2796 -62.4470 329° Northwest  Level FlightAware Approximate
Mon 03:04:00 PM 12.3811 -62.5091 329° Northwest  Level FlightAware Approximate
Mon 03:05:00 PM 12.4825 -62.5713 329° Northwest  Level FlightAware Approximate
Mon 03:06:00 PM 12.5839 -62.6334 329° Northwest  Level FlightAware Approximate
Mon 03:07:00 PM 12.6853 -62.6957 329° Northwest  Level FlightAware Approximate
Mon 03:08:00 PM 12.7867 -62.7580 329° Northwest  Level FlightAware Approximate
Mon 03:09:00 PM 12.8881 -62.8203 329° Northwest  Level FlightAware Approximate
Mon 03:10:00 PM 12.9895 -62.8827 329° Northwest  Level FlightAware Approximate
Mon 03:11:00 PM 13.0908 -62.9451 329° Northwest  Level FlightAware Approximate
Mon 03:12:00 PM 13.1922 -63.0076 329° Northwest  Level FlightAware Approximate
Mon 03:13:00 PM 13.2935 -63.0702 329° Northwest  Level FlightAware Approximate
Mon 03:14:00 PM 13.3948 -63.1328 329° Northwest  Level FlightAware Approximate
Mon 03:15:00 PM 13.4961 -63.1954 329° Northwest  Level FlightAware Approximate
Mon 03:16:00 PM 13.5974 -63.2581 329° Northwest  Level FlightAware Approximate
Mon 03:17:00 PM 13.6986 -63.3209 329° Northwest  Level FlightAware Approximate
Mon 03:18:00 PM 13.7999 -63.3837 329° Northwest  Level FlightAware Approximate
Mon 03:19:00 PM 13.9011 -63.4466 329° Northwest  Level FlightAware Approximate
Mon 03:20:00 PM 14.0023 -63.5095 329° Northwest  Level FlightAware Approximate
Mon 03:21:00 PM 14.1035 -63.5725 329° Northwest  Level FlightAware Approximate
Mon 03:22:00 PM 14.2047 -63.6355 329° Northwest  Level FlightAware Approximate
Mon 03:23:00 PM 14.3059 -63.6986 329° Northwest  Level FlightAware Approximate
Mon 03:24:00 PM 14.4077 -63.7622 329° Northwest  Level FlightAware Approximate
Mon 03:25:00 PM 14.5096 -63.8258 329° Northwest  Level FlightAware Approximate
Mon 03:26:00 PM 14.6114 -63.8895 329° Northwest  Level FlightAware Approximate
Mon 03:27:00 PM 14.7132 -63.9533 329° Northwest  Level FlightAware Approximate
Mon 03:28:00 PM 14.7872 -64.0496 316° Northwest  Level Estimated
Mon 03:29:00 PM 14.8613 -64.1460 327° Northwest  Level Estimated
Mon 03:30:00 PM 14.9690 -64.1985 335° Northwest  Level FlightAware Approximate
Mon 03:31:00 PM 15.0767 -64.2510 335° Northwest  Level FlightAware Approximate
Mon 03:32:00 PM 15.1844 -64.3035 335° Northwest  Level FlightAware Approximate
Mon 03:33:00 PM 15.2575 -64.4008 329° Northwest  Level Estimated
Mon 03:34:00 PM 15.3630 -64.4581 332° Northwest  Level FlightAware Approximate
Mon 03:34:12 PM 15.2667 -64.3167 332° Northwest 460 529 34,000  Level San Juan Center
Mon 03:35:00 PM 15.4684 -64.5154 332° Northwest  Level FlightAware Approximate
Mon 03:36:00 PM 15.5738 -64.5728 332° Northwest  Level FlightAware Approximate
Mon 03:36:00 PM 15.3978 -64.4924 308° West  Level Estimated
Mon 03:36:52 PM 15.5500 -64.5333 308° West 460 529 34,000  Level San Juan Center
Mon 03:37:00 PM 15.6792 -64.6302 332° Northwest  Level FlightAware Approximate
Mon 03:37:52 PM 15.6167 -64.6167 310° West 460 529 34,000  Level San Juan Center
Mon 03:38:00 PM 15.7846 -64.6877 332° Northwest  Level FlightAware Approximate
Mon 03:38:52 PM 15.7167 -64.6833 327° Northwest 450 518 34,000  Level San Juan Center
Mon 03:39:00 PM 15.8900 -64.7453 332° Northwest  Level FlightAware Approximate
Mon 03:39:53 PM 15.8167 -64.7833 316° Northwest 460 529 34,000  Level San Juan Center
Mon 03:41:52 PM 16.0167 -64.9833 316° Northwest 480 552 34,000  Level San Juan Center
Mon 03:42:53 PM 16.1167 -65.0667 321° Northwest 470 541 34,000  Level San Juan Center
Mon 03:43:53 PM 16.2167 -65.1667 316° Northwest 470 541 34,000  Level San Juan Center
Mon 03:44:53 PM 16.3000 -65.2333 322° Northwest 460 529 34,000  Level San Juan Center
Mon 03:45:53 PM 16.4000 -65.3167 321° Northwest 460 529 34,000  Level San Juan Center
Mon 03:46:53 PM 16.4833 -65.4167 311° West 460 529 34,000  Level San Juan Center
Mon 03:47:53 PM 16.5833 -65.5000 321° Northwest 470 541 34,000  Level San Juan Center
Mon 03:48:53 PM 16.7167 -65.5333 347° North 450 518 34,000  Level San Juan Center
Mon 03:49:54 PM 16.8333 -65.5667 345° North 460 529 34,000  Level San Juan Center
Mon 03:50:54 PM 16.9500 -65.6000 345° North 450 518 34,000  Level San Juan Center
Mon 03:51:54 PM 17.0667 -65.6833 326° Northwest 460 529 34,000  Level San Juan Center
Mon 03:52:54 PM 17.1500 -65.7833 311° West 460 529 34,000  Level San Juan Center
Mon 03:53:54 PM 17.2500 -65.8833 316° Northwest 460 529 34,000  Level San Juan Center
Mon 03:54:54 PM 17.3333 -65.9833 311° West 460 529 34,000  Level San Juan Center
Mon 03:55:54 PM 17.4333 -66.0833 316° Northwest 460 529 34,000  Level San Juan Center
Mon 03:56:55 PM 17.5167 -66.1667 316° Northwest 460 529 34,000  Level San Juan Center
Mon 03:57:55 PM 17.6000 -66.2667 311° West 470 541 34,000  Level San Juan Center
Mon 03:58:55 PM 17.7000 -66.3667 316° Northwest 460 529 34,000  Level San Juan Center
Mon 03:59:55 PM 17.8000 -66.4667 316° Northwest 470 541 34,000  Level San Juan Center
Mon 04:00:55 PM 17.8833 -66.5500 316° Northwest 460 529 34,000  Level San Juan Center
Mon 04:01:55 PM 18.0000 -66.6333 326° Northwest 460 529 34,000  Level San Juan Center
Mon 04:02:55 PM 18.1000 -66.7167 322° Northwest 470 541 34,000  Level San Juan Center
Mon 04:03:55 PM 18.1833 -66.8167 311° West 470 541 34,000  Level San Juan Center
Mon 04:04:56 PM 18.2833 -66.9167 316° Northwest 470 541 34,000  Level San Juan Center
Mon 04:05:56 PM 18.3667 -67.0167 311° West 460 529 34,000  Level San Juan Center
Mon 04:06:56 PM 18.4667 -67.1167 317° Northwest 470 541 34,000  Level San Juan Center
Mon 04:07:56 PM 18.5500 -67.2167 311° West 470 541 34,000  Level San Juan Center
Mon 04:08:56 PM 18.6333 -67.3167 311° West 470 541 34,000  Level San Juan Center
Mon 04:09:56 PM 18.7333 -67.4167 317° Northwest 470 541 34,000  Level San Juan Center
Mon 04:10:56 PM 18.8167 -67.5167 311° West 470 541 34,000  Level San Juan Center
Mon 04:11:57 PM 18.9167 -67.6167 317° Northwest 470 541 34,000  Level San Juan Center
Mon 04:12:57 PM 19.0000 -67.7000 317° Northwest 460 529 34,000  Level San Juan Center
Mon 04:13:57 PM 19.0833 -67.8000 311° West 470 541 34,000  Level San Juan Center
Mon 04:14:57 PM 19.1833 -67.9000 317° Northwest 470 541 34,000  Level San Juan Center
Mon 04:15:57 PM 19.2667 -68.0000 311° West 470 541 34,000  Level San Juan Center
Mon 04:16:57 PM 19.3667 -68.1000 317° Northwest 470 541 34,000  Level San Juan Center
Mon 04:17:57 PM 19.4500 -68.2000 311° West 470 541 34,000  Level San Juan Center
Mon 04:18:57 PM 19.5500 -68.3167 312° West 470 541 34,000  Level San Juan Center
Mon 04:19:51 PM 19.6347 -68.4294 309° West 479 551 34,000  Level Miami Center
Mon 04:20:51 PM 19.7272 -68.5272 315° West 479 551 34,000  Level Miami Center
Mon 04:21:51 PM 19.8181 -68.6317 313° West 479 551 34,000  Level Miami Center
Mon 04:22:51 PM 19.9006 -68.7411 309° West 484 557 34,000  Level Miami Center
Mon 04:23:51 PM 19.9653 -68.8650 299° West 484 557 34,000  Level Miami Center
Mon 04:24:51 PM 20.0319 -68.9867 300° West 479 551 34,000  Level Miami Center
Mon 04:25:51 PM 20.0983 -69.1086 300° West 473 544 34,000  Level Miami Center
Mon 04:26:51 PM 20.1667 -69.2281 301° West 473 544 34,000  Level Miami Center
Mon 04:27:51 PM 20.2331 -69.3503 300° West 473 544 34,000  Level Miami Center
Mon 04:28:51 PM 20.3011 -69.4722 301° West 473 544 34,000  Level Miami Center
Mon 04:29:51 PM 20.3675 -69.5947 300° West 473 544 34,000  Level Miami Center
Mon 04:30:51 PM 20.4333 -69.7128 301° West 473 544 34,000  Level Miami Center
Mon 04:31:51 PM 20.4992 -69.8353 300° West 473 544 34,000  Level Miami Center
Mon 04:32:51 PM 20.5631 -69.9558 300° West 468 539 34,000  Level Miami Center
Mon 04:33:51 PM 20.6267 -70.0767 299° West 468 539 34,000  Level Miami Center
Mon 04:34:51 PM 20.6922 -70.1972 300° West 468 539 34,000  Level Miami Center
Mon 04:35:51 PM 20.7600 -70.3181 301° West 468 539 34,000  Level Miami Center
Mon 04:36:51 PM 20.8233 -70.4392 299° West 468 539 34,000  Level Miami Center
Mon 04:37:51 PM 20.8911 -70.5625 300° West 468 539 34,000  Level Miami Center
Mon 04:38:51 PM 20.9583 -70.6836 301° West 468 539 34,000  Level Miami Center
Mon 04:39:51 PM 21.0258 -70.8072 300° West 468 539 34,000  Level Miami Center
Mon 04:40:51 PM 21.0911 -70.9264 300° West 468 539 34,000  Level Miami Center
Mon 04:41:51 PM 21.1561 -71.0503 299° West 468 539 34,000  Level Miami Center
Mon 04:42:51 PM 21.2214 -71.1742 299° West 468 539 34,000  Level Miami Center
Mon 04:43:51 PM 21.2817 -71.2850 300° West 468 539 34,000  Level Miami Center
Mon 04:44:51 PM 21.3486 -71.4047 301° West 474 545 34,000  Level Miami Center
Mon 04:45:51 PM 21.4156 -71.5289 300° West 474 545 34,000  Level Miami Center
Mon 04:46:51 PM 21.4822 -71.6489 301° West 468 539 34,000  Level Miami Center
Mon 04:47:51 PM 21.5469 -71.7736 299° West 468 539 34,000  Level Miami Center
Mon 04:48:51 PM 21.6114 -71.9006 299° West 474 545 34,000  Level Miami Center
Mon 04:49:51 PM 21.6761 -72.0253 299° West 474 545 34,000  Level Miami Center
Mon 04:50:51 PM 21.7406 -72.1525 299° West 474 545 34,000  Level Miami Center
Mon 04:51:51 PM 21.8047 -72.2756 299° West 474 545 34,000  Level Miami Center
Mon 04:52:51 PM 21.8692 -72.4028 299° West 474 545 34,000  Level Miami Center
Mon 04:53:51 PM 21.9331 -72.5261 299° West 474 545 34,000  Level Miami Center
Mon 04:54:51 PM 21.9992 -72.6514 300° West 474 545 34,000  Level Miami Center
Mon 04:55:51 PM 22.0631 -72.7747 299° West 474 545 34,000  Level Miami Center
Mon 04:56:51 PM 22.1269 -72.9006 299° West 469 540 34,000  Level Miami Center
Mon 04:57:51 PM 22.1928 -73.0219 300° West 469 540 34,000  Level Miami Center
Mon 04:58:51 PM 22.2564 -73.1456 299° West 469 540 34,000 300 Level Miami Center
Mon 04:59:51 PM 22.3200 -73.2717 299° West 469 540 34,600 1,300 Climbing Miami Center
Mon 05:00:51 PM 22.3772 -73.3936 297° West 469 540 36,600 1,800 Climbing Miami Center
Mon 05:01:51 PM 22.4342 -73.5111 298° West 459 528 38,200 1,500 Climbing Miami Center
Mon 05:02:51 PM 22.4911 -73.6311 297° West 454 522 39,600 900 Climbing Miami Center
Mon 05:03:51 PM 22.5519 -73.7556 298° West 441 507 40,000 200 Climbing Miami Center
Mon 05:04:51 PM 22.6108 -73.8689 299° West 441 507 40,000  Level Miami Center
Mon 05:05:51 PM 22.6653 -73.9892 296° West 436 502 40,000  Level Miami Center
Mon 05:06:51 PM 22.7258 -74.1025 300° West 436 502 40,000  Level Miami Center
Mon 05:07:51 PM 22.7844 -74.2183 299° West 436 502 40,000  Level Miami Center
Mon 05:08:51 PM 22.8406 -74.3344 298° West 436 502 40,000  Level Miami Center
Mon 05:09:51 PM 22.8989 -74.4528 298° West 436 502 40,000  Level Miami Center
Mon 05:10:51 PM 22.9592 -74.5689 299° West 436 502 40,000  Level Miami Center
Mon 05:11:51 PM 23.0175 -74.6875 298° West 436 502 40,000  Level Miami Center
Mon 05:12:51 PM 23.0756 -74.8064 298° West 436 502 40,000  Level Miami Center
Mon 05:13:51 PM 23.1356 -74.9228 299° West 442 509 40,000  Level Miami Center
Mon 05:14:51 PM 23.1936 -75.0439 298° West 447 514 40,000  Level Miami Center
Mon 05:15:51 PM 23.2514 -75.1631 298° West 447 514 40,000  Level Miami Center
Mon 05:16:51 PM 23.3111 -75.2797 299° West 447 514 40,000  Level Miami Center
Mon 05:17:51 PM 23.3686 -75.3992 298° West 447 514 40,000  Level Miami Center
Mon 05:18:51 PM 23.4283 -75.5206 298° West 447 514 40,000  Level Miami Center
Mon 05:19:51 PM 23.4900 -75.6422 299° West 447 514 40,000  Level Miami Center
Mon 05:20:51 PM 23.5472 -75.7369 303° West 452 520 40,000  Level Miami Center
Mon 05:21:51 PM 23.6089 -75.8839 295° West 471 542 40,000  Level Miami Center
Mon 05:22:51 PM 23.6661 -76.0036 298° West 465 535 40,000  Level Miami Center
Mon 05:23:51 PM 23.7253 -76.1281 297° West 465 535 40,000  Level Miami Center
Mon 05:24:51 PM 23.7842 -76.2525 297° West 460 529 40,000  Level Miami Center
Mon 05:25:51 PM 23.8433 -76.3750 298° West 460 529 40,000  Level Miami Center
Mon 05:26:51 PM 23.9022 -76.4997 297° West 460 529 40,000  Level Miami Center
Mon 05:27:51 PM 23.9608 -76.6247 297° West 460 529 40,000  Level Miami Center
Mon 05:28:51 PM 24.0217 -76.7497 298° West 466 536 40,000  Level Miami Center
Mon 05:29:51 PM 24.0781 -76.8725 297° West 466 536 40,000  Level Miami Center
Mon 05:30:51 PM 24.1344 -76.9933 297° West 455 524 40,000  Level Miami Center
Mon 05:31:51 PM 24.1928 -77.1186 297° West 455 524 40,000  Level Miami Center
Mon 05:32:51 PM 24.2511 -77.2442 297° West 455 524 40,000  Level Miami Center
Mon 05:33:51 PM 24.3114 -77.3672 298° West 455 524 40,000  Level Miami Center
Mon 05:34:51 PM 24.3672 -77.4886 297° West 449 517 40,000  Level Miami Center
Mon 05:35:51 PM 24.4253 -77.6144 297° West 449 517 40,000  Level Miami Center
Mon 05:36:51 PM 24.4831 -77.7381 297° West 449 517 40,000  Level Miami Center
Mon 05:37:51 PM 24.5408 -77.8642 297° West 449 517 40,000  Level Miami Center
Mon 05:38:51 PM 24.6047 -77.9994 297° West 449 517 40,000 -450 Level Miami Center
Mon 05:39:51 PM 24.6622 -78.1256 297° West 449 517 39,100 -1,250 Descending Miami Center
Mon 05:40:51 PM 24.7217 -78.2522 297° West 454 522 37,500 -1,600 Descending Miami Center
Mon 05:41:51 PM 24.7767 -78.3808 295° West 461 531 35,900 -1,650 Descending Miami Center
Mon 05:42:51 PM 24.8422 -78.5144 298° West 473 544 34,200 -1,750 Descending Miami Center
Mon 05:43:51 PM 24.9033 -78.6436 298° West 473 544 32,400 -2,400 Descending Miami Center
Mon 05:44:51 PM 24.9622 -78.7775 296° West 480 552 29,400 -2,450 Descending Miami Center
Mon 05:45:51 PM 25.0211 -78.9092 296° West 485 558 27,500 -2,000 Descending Miami Center
Mon 05:46:51 PM 25.0781 -79.0225 299° West 476 548 25,400 -2,400 Descending Miami Center
Mon 05:47:51 PM 25.1306 -79.1450 295° West 462 532 22,700 -2,800 Descending Miami Center
Mon 05:48:51 PM 25.1850 -79.2678 296° West 449 517 19,800 -2,700 Descending Miami Center
Mon 05:49:51 PM 25.2394 -79.3858 297° West 444 511 17,300 -2,450 Descending Miami Center
Mon 05:50:51 PM 25.2919 -79.4997 297° West 430 495 14,900 -2,450 Descending Miami Center
Mon 05:51:51 PM 25.3400 -79.6086 296° West 413 475 12,400 -1,450 Descending Miami Center
Mon 05:52:51 PM 25.3842 -79.7086 296° West 389 448 12,000 -286 Descending Miami Center
Mon 05:53:15 PM 25.4039 -79.7550 295° West 336 387 12,000  Level Miami Center
Mon 05:53:51 PM 25.4367 -79.7950 312° West 362 417 12,000  Level Miami Center
Mon 05:54:09 PM 25.4589 -79.8369 300° West 341 392 12,000  Level Miami Center
Mon 05:54:51 PM 25.4933 -79.8814 311° West 350 403 12,000  Level Miami Center
Mon 05:55:05 PM 25.5114 -79.9164 300° West 351 404 12,000  Level Miami Center
Mon 05:55:51 PM 25.5503 -79.9658 311° West 350 403 12,000  Level Miami Center
Mon 05:56:18 PM 25.5742 -80.0103 301° West 286 329 12,000 -200 Level Miami Center
Mon 05:56:51 PM 25.5967 -80.0383 312° West 320 368 11,800 -612 Descending Miami Center
Mon 05:57:07 PM 25.6086 -80.0642 297° West 263 303 11,500 -1,000 Descending Miami Center
Mon 05:57:51 PM 25.6411 -80.1019 314° West 287 330 10,800 -1,075 Descending Miami Center
Mon 05:58:14 PM 25.6572 -80.1369 297° West 259 298 10,300 -1,200 Descending Miami Center
Mon 05:58:51 PM 25.6711 -80.1717 294° West 263 303 9,600 -1,258 Descending Miami Center
Mon 05:59:16 PM 25.6803 -80.2181 282° West 261 300 9,000 -1,200 Descending Miami Center
Mon 05:59:51 PM 25.6922 -80.2483 294° West 257 296 8,400 -982 Descending Miami Center
Mon 06:00:11 PM 25.6975 -80.2856 279° West 262 302 8,100 -1,000 Descending Miami Center
Mon 06:00:51 PM 25.7092 -80.3272 287° West 257 296 7,400 -1,279 Descending Miami Center
Mon 06:01:12 PM 25.7039 -80.3686 262° West 259 298 6,800 -1,432 Descending Miami Center
Mon 06:02:19 PM 25.7019 -80.4586 269° West 258 297 5,300 -1,171 Descending Miami Center
Mon 06:03:15 PM 25.6961 -80.5228 264° West 250 288 4,400 -1,077 Descending Miami Center
Mon 06:04:16 PM 25.6942 -80.6011 268° West 246 283 3,200 -656 Descending Miami Center
Mon 06:05:23 PM 25.7025 -80.6775 277° West 205 236 3,000 -98 Descending Miami Center
Mon 06:06:18 PM 25.7461 -80.6906 345° North 178 205 3,000  Level Miami Center
Mon 06:07:19 PM 25.7700 -80.6589 50° Northeast 167 192 3,000  Level Miami Center
Mon 06:08:20 PM 25.7711 -80.6083 89° East 151 174 3,000  Level Miami Center
Mon 06:09:27 PM 25.7725 -80.5575 88° East 154 177 3,000  Level Miami Center
Mon 06:10:23 PM 25.7756 -80.5136 86° East 153 176 3,000 -244 Level Miami Center
Mon 06:11:30 PM 25.7747 -80.4631 91° East 152 175 2,500 -590 Descending Miami Center
Mon 06:12:25 PM 25.7800 -80.4192 82° East 154 177 1,800 -776 Descending Miami Center
Mon 06:13:26 PM 25.7792 -80.3708 91° East 146 168 1,000 -689 Descending Miami Center
Mon 06:14:27 PM 25.7822 -80.3339 85° East 118 136 400 -590 Descending Miami Center

Login

Don't have an account? Register now (free) for customized features, flight alerts, and more!